Time;durP1;ratioP1;P1;durP2;ratioP2;P2;SDS_P1;SDS_P2;PMS_P1;PMS_P2;Temp;Humidity;BMP_temperature;BMP_pressure;BME280_temperature;BME280_humidity;BME280_pressure;Samples;Min_cycle;Max_cycle;Signal;HPM_P1;HPM_P2
2024/03/09 00:00:42;;;;;;;16.45;9.95;;;4.90;68.90;;;6.84;50.43;96533.28;5027672;28;20388;-48
2024/03/09 00:03:12;;;;;;;15.70;9.83;;;4.90;69.20;;;6.81;50.28;96545.03;5030350;28;20055;-45
2024/03/09 00:05:41;;;;;;;18.53;9.57;;;4.90;68.70;;;6.77;50.42;96541.06;5014041;28;20177;-48
2024/03/09 00:08:11;;;;;;;22.50;13.13;;;4.80;68.90;;;6.75;50.55;96544.88;5012839;28;20039;-46
2024/03/09 00:10:39;;;;;;;20.43;11.17;;;4.80;69.30;;;6.74;51.22;96544.00;5026898;28;20127;-47
2024/03/09 00:13:10;;;;;;;16.93;10.67;;;4.80;69.10;;;6.75;50.89;96543.03;5029936;28;20040;-47
2024/03/09 00:15:41;;;;;;;16.33;10.57;;;4.80;69.10;;;6.73;50.55;96537.09;5016297;28;20041;-49
2024/03/09 00:18:09;;;;;;;18.40;11.20;;;4.80;69.30;;;6.72;50.78;96546.00;5012485;28;20065;-50
2024/03/09 00:20:37;;;;;;;18.10;10.07;;;4.80;69.60;;;6.70;51.17;96548.81;5024471;28;20046;-47
2024/03/09 00:23:08;;;;;;;17.00;9.67;;;4.80;69.60;;;6.69;51.32;96547.16;5029718;28;20041;-50
2024/03/09 00:25:37;;;;;;;16.83;9.33;;;4.70;69.70;;;6.69;50.81;96552.44;5018170;28;20044;-49
2024/03/09 00:28:06;;;;;;;16.03;9.17;;;4.80;70.00;;;6.71;50.90;96557.59;5012324;28;20070;-46
2024/03/09 00:30:35;;;;;;;13.23;10.33;;;4.80;70.50;;;6.70;51.40;96556.72;5022079;28;20075;-47
2024/03/09 00:33:07;;;;;;;18.70;11.87;;;4.80;70.70;;;6.72;51.10;96550.47;5029534;28;20072;-50
2024/03/09 00:35:36;;;;;;;17.67;9.83;;;4.80;71.10;;;6.72;51.88;96555.75;5018166;28;20514;-47
2024/03/09 00:38:04;;;;;;;18.03;10.70;;;4.70;71.10;;;6.72;51.33;96553.13;5012370;28;20049;-47
2024/03/09 00:40:33;;;;;;;15.63;8.90;;;4.70;71.20;;;6.73;51.02;96541.53;5019899;28;20039;-46
2024/03/09 00:43:04;;;;;;;16.37;9.70;;;4.80;70.70;;;6.73;51.32;96529.16;5028295;28;20048;-46
2024/03/09 00:45:32;;;;;;;14.33;9.50;;;4.80;70.80;;;6.74;51.91;96522.84;5021507;28;20045;-47
2024/03/09 00:48:00;;;;;;;16.47;10.87;;;4.80;70.60;;;6.72;51.66;96524.03;5010530;28;20058;-46
2024/03/09 00:50:28;;;;;;;17.30;10.57;;;4.80;70.80;;;6.72;51.37;96518.72;5015344;28;20422;-49
2024/03/09 00:52:56;;;;;;;16.40;10.27;;;4.80;70.80;;;6.70;51.80;96517.06;5029241;28;20032;-46
2024/03/09 00:55:24;;;;;;;15.27;9.40;;;4.80;71.60;;;6.73;51.59;96515.94;5028241;28;20040;-47
2024/03/09 00:57:53;;;;;;;18.23;9.83;;;4.80;71.50;;;6.76;51.64;96512.13;5012059;28;20039;-46
2024/03/09 01:00:23;;;;;;;15.83;11.17;;;4.90;71.00;;;6.77;51.56;96505.84;5011692;28;20090;-48
2024/03/09 01:02:52;;;;;;;17.17;10.10;;;4.90;70.90;;;6.79;51.64;96514.44;5011930;28;20122;-46
2024/03/09 01:05:22;;;;;;;18.50;10.10;;;4.90;71.40;;;6.80;51.71;96511.59;5011715;28;20047;-47
2024/03/09 01:07:50;;;;;;;17.33;10.83;;;5.00;71.40;;;6.81;51.68;96507.97;5002870;28;20078;-47
2024/03/09 01:10:18;;;;;;;20.67;12.83;;;5.00;71.20;;;6.78;51.93;96523.34;5011382;28;20047;-46
2024/03/09 01:12:47;;;;;;;18.43;12.17;;;4.80;71.30;;;6.76;52.08;96534.09;5026930;28;20036;-50
2024/03/09 01:15:15;;;;;;;14.90;9.23;;;4.80;71.40;;;6.75;51.49;96543.03;5029194;28;20403;-48
2024/03/09 01:17:43;;;;;;;15.80;9.63;;;4.80;71.10;;;6.73;51.75;96534.44;5015701;28;20037;-49
2024/03/09 01:20:12;;;;;;;19.93;9.63;;;4.80;70.90;;;6.68;52.00;96526.16;5010167;28;20054;-50
2024/03/09 01:22:43;;;;;;;16.83;9.63;;;4.70;71.70;;;6.67;52.14;96530.63;5022412;28;20430;-50
2024/03/09 01:25:12;;;;;;;18.10;11.03;;;4.70;71.70;;;6.62;51.76;96519.72;5028726;28;20040;-47
2024/03/09 01:27:40;;;;;;;16.53;11.27;;;4.60;72.00;;;6.59;52.05;96525.34;5018644;28;20048;-49
2024/03/09 01:30:09;;;;;;;19.43;9.90;;;4.60;72.10;;;6.59;52.24;96519.19;5009884;28;20039;-49
2024/03/09 01:32:43;;;;;;;16.57;10.77;;;4.60;72.30;;;6.60;51.80;96512.94;5019772;28;20051;-46
2024/03/09 01:35:12;;;;;;;16.77;11.38;;;4.60;72.40;;;6.57;52.24;96511.47;5027575;28;20040;-47
2024/03/09 01:37:41;;;;;;;17.47;11.70;;;4.50;72.80;;;6.58;52.38;96506.97;5018656;28;20037;-47
2024/03/09 01:40:10;;;;;;;18.67;10.33;;;4.50;72.50;;;6.58;51.89;96502.53;5007497;28;20459;-48
2024/03/09 01:42:38;;;;;;;19.80;11.20;;;4.50;72.50;;;6.58;52.29;96507.81;5018615;28;20057;-49
2024/03/09 01:45:07;;;;;;;16.73;10.50;;;4.60;72.70;;;6.57;52.25;96500.88;5028724;28;20041;-48
2024/03/09 01:47:36;;;;;;;15.13;10.03;;;4.50;73.20;;;6.59;51.89;96493.59;5023860;28;20045;-46
2024/03/09 01:50:12;;;;;;;16.73;11.27;;;4.60;73.10;;;6.64;52.18;96493.91;4993861;28;20429;-50
2024/03/09 01:52:47;;;;;;;17.20;10.20;;;4.70;72.70;;;6.66;52.83;96497.22;5020306;28;20043;-47
2024/03/09 01:55:19;;;;;;;17.13;9.97;;;4.70;72.90;;;6.68;52.40;96492.59;5028749;28;20041;-46
2024/03/09 01:57:50;;;;;;;18.20;10.70;;;4.80;72.50;;;6.73;52.47;96488.63;5013483;28;20054;-47
2024/03/09 02:00:20;;;;;;;17.73;11.33;;;4.80;72.60;;;6.74;52.62;96491.13;5009760;28;20046;-49
2024/03/09 02:02:49;;;;;;;17.43;10.17;;;4.80;73.00;;;6.77;52.70;96493.44;5025757;28;20399;-46
2024/03/09 02:05:19;;;;;;;18.07;10.33;;;4.90;72.80;;;6.81;52.84;96486.00;5031175;28;20041;-46
2024/03/09 02:07:47;;;;;;;18.10;10.07;;;4.90;72.70;;;6.84;52.79;96473.28;5019605;28;20067;-46
2024/03/09 02:10:15;;;;;;;17.27;10.57;;;5.00;72.20;;;6.86;52.63;96479.22;5014090;28;20047;-48
2024/03/09 02:12:43;;;;;;;17.70;10.40;;;5.00;72.10;;;6.90;52.29;96482.34;5005840;28;20051;-45
2024/03/09 02:15:15;;;;;;;16.57;10.60;;;5.10;72.40;;;6.92;52.18;96475.09;5030891;28;20040;-48
2024/03/09 02:17:46;;;;;;;16.40;10.07;;;5.10;71.70;;;6.94;52.38;96475.75;5022495;28;20071;-46
2024/03/09 02:20:31;;;;;;;17.90;10.97;;;5.10;71.70;;;6.97;52.36;96477.22;5014286;28;20038;-47
2024/03/09 02:22:59;;;;;;;16.63;11.80;;;5.10;71.60;;;6.95;52.40;96477.38;5007523;28;20051;-48
2024/03/09 02:25:29;;;;;;;19.37;11.77;;;5.10;72.20;;;6.96;52.31;96468.47;5013525;28;20223;-47
2024/03/09 02:27:58;;;;;;;19.53;11.63;;;5.10;72.30;;;6.97;52.47;96469.28;5014596;28;20050;-49
2024/03/09 02:30:29;;;;;;;18.70;11.13;;;5.00;73.00;;;6.98;52.19;96466.47;5014036;28;20051;-47
2024/03/09 02:32:57;;;;;;;18.60;9.90;;;5.10;72.10;;;7.01;52.68;96462.66;5032006;28;20039;-47
2024/03/09 02:35:25;;;;;;;17.17;10.43;;;5.10;72.30;;;7.03;52.24;96460.66;5031731;28;20041;-45
2024/03/09 02:37:53;;;;;;;17.37;10.77;;;5.10;72.20;;;7.05;52.47;96463.97;5017131;28;20409;-47
2024/03/09 02:40:23;;;;;;;19.90;13.13;;;5.20;72.20;;;7.08;52.83;96461.81;5013918;28;20410;-48
2024/03/09 02:43:07;;;;;;;20.67;12.40;;;5.30;72.00;;;7.12;52.58;96466.78;5027277;28;20506;-50
2024/03/09 02:45:35;;;;;;;20.30;11.00;;;5.30;72.00;;;7.15;52.49;96475.19;5029189;28;20051;-48
2024/03/09 02:48:03;;;;;;;15.77;9.53;;;5.30;71.90;;;7.21;52.78;96476.34;5012899;28;20066;-48
2024/03/09 02:50:31;;;;;;;16.90;10.07;;;5.30;71.90;;;7.25;52.50;96465.28;5013851;28;20069;-47
2024/03/09 02:53:00;;;;;;;20.50;10.93;;;5.40;71.70;;;7.29;52.62;96465.75;5031517;28;20415;-47
2024/03/09 02:55:28;;;;;;;17.60;10.70;;;5.40;71.20;;;7.32;52.50;96462.75;5030529;28;20404;-50
2024/03/09 02:57:56;;;;;;;16.73;10.23;;;5.50;71.40;;;7.34;52.55;96454.66;5016372;28;20043;-49
2024/03/09 03:00:26;;;;;;;17.70;10.53;;;5.50;71.50;;;7.36;52.53;96463.25;5013677;28;20050;-49
2024/03/09 03:05:42;;;;;;;16.73;9.87;;;5.40;71.60;;;7.42;52.38;96459.91;5027526;28;20518;-45
2024/03/09 03:08:11;;;;;;;19.47;10.43;;;5.50;71.50;;;7.46;52.31;96455.94;5014098;28;20125;-45
2024/03/09 03:10:40;;;;;;;21.27;10.37;;;5.60;70.80;;;7.47;52.24;96457.59;5016208;28;20082;-49
2024/03/09 03:13:08;;;;;;;19.07;11.60;;;5.70;71.00;;;7.49;52.42;96458.25;5013688;28;20040;-49
2024/03/09 03:15:37;;;;;;;15.47;10.73;;;5.70;71.00;;;7.50;52.49;96457.22;5031021;28;20045;-48
2024/03/09 03:18:08;;;;;;;20.23;10.17;;;5.70;71.60;;;7.54;52.73;96439.19;5013366;28;20042;-49
2024/03/09 03:20:36;;;;;;;19.80;11.47;;;5.70;72.60;;;7.57;52.66;96439.66;5013334;28;20054;-46
2024/03/09 03:23:04;;;;;;;17.23;12.03;;;5.70;72.70;;;7.58;52.81;96432.53;5005845;28;20050;-48
2024/03/09 03:25:32;;;;;;;19.87;11.43;;;5.60;73.90;;;7.54;52.92;96425.94;5012573;28;20054;-46
2024/03/09 03:28:00;;;;;;;18.33;10.93;;;5.60;74.50;;;7.55;53.23;96417.84;5029645;28;20033;-47
2024/03/09 03:30:27;;;;;;;20.90;12.07;;;5.60;75.70;;;7.55;53.44;96412.53;5029094;28;20044;-49
2024/03/09 03:32:55;;;;;;;19.87;11.73;;;5.60;76.00;;;7.55;53.59;96417.00;5018204;28;20047;-49
2024/03/09 03:35:24;;;;;;;19.63;12.10;;;5.70;76.40;;;7.56;53.71;96410.69;5012996;28;20399;-49
2024/03/09 03:37:58;;;;;;;21.47;13.67;;;5.70;76.30;;;7.57;53.41;96410.53;5023287;28;20047;-46
2024/03/09 03:40:26;;;;;;;20.50;14.10;;;5.70;76.10;;;7.58;53.78;96395.47;5030444;28;20044;-50
2024/03/09 03:42:54;;;;;;;17.10;10.73;;;5.70;77.10;;;7.58;53.81;96396.31;5018371;28;20405;-46
2024/03/09 03:45:22;;;;;;;17.40;12.00;;;5.80;77.10;;;7.60;54.00;96398.75;5012653;28;20442;-49
2024/03/09 03:47:49;;;;;;;24.77;14.83;;;5.80;77.90;;;7.61;54.40;96393.28;5020089;28;20061;-47
2024/03/09 03:50:17;;;;;;;20.83;10.83;;;5.80;78.50;;;7.66;54.60;96383.03;5030506;28;20044;-46
2024/03/09 03:52:45;;;;;;;18.23;11.33;;;5.80;79.10;;;7.67;54.65;96378.53;5026891;28;20056;-46
2024/03/09 03:55:12;;;;;;;20.00;13.10;;;5.80;78.80;;;7.64;54.65;96371.78;5011308;28;20047;-45
2024/03/09 03:57:42;;;;;;;26.60;15.57;;;5.80;79.10;;;7.64;54.50;96374.41;5011545;28;20043;-49
2024/03/09 04:00:12;;;;;;;22.80;13.43;;;5.80;78.40;;;7.63;54.74;96369.28;5005259;28;20047;-47
2024/03/09 04:02:41;;;;;;;27.20;14.53;;;5.80;79.50;;;7.53;54.84;96361.56;5012944;28;20051;-46
2024/03/09 04:05:09;;;;;;;21.80;12.50;;;5.80;78.70;;;7.49;55.34;96369.03;5005464;28;20484;-47
2024/03/09 04:07:37;;;;;;;19.40;12.03;;;5.70;80.30;;;7.49;55.18;96366.38;5012787;28;20286;-45
2024/03/09 04:10:12;;;;;;;50.83;29.10;;;5.60;80.80;;;7.47;55.23;96359.63;5028634;28;20048;-49
2024/03/09 04:12:40;;;;;;;45.63;26.83;;;5.60;80.90;;;7.49;55.54;96350.50;5030210;28;20402;-49
2024/03/09 04:15:09;;;;;;;26.27;15.87;;;5.70;82.00;;;7.52;55.72;96340.53;5004436;28;20054;-46
2024/03/09 04:17:38;;;;;;;16.53;11.23;;;5.70;82.50;;;7.53;55.54;96336.91;5009344;28;20037;-47
2024/03/09 04:20:06;;;;;;;20.20;10.60;;;5.70;82.70;;;7.52;55.87;96324.66;5012750;28;20047;-44
2024/03/09 04:22:35;;;;;;;16.83;10.90;;;5.70;82.10;;;7.51;55.66;96321.19;5012640;28;20058;-50
2024/03/09 04:25:05;;;;;;;20.60;11.90;;;5.60;82.70;;;7.52;55.78;96314.88;5025806;28;20052;-49
2024/03/09 04:27:32;;;;;;;20.73;12.10;;;5.50;82.70;;;7.50;55.60;96322.16;5030051;28;20045;-49
2024/03/09 04:30:01;;;;;;;22.63;13.40;;;5.50;82.50;;;7.48;55.79;96311.78;5017579;28;20067;-47
2024/03/09 04:32:29;;;;;;;20.30;13.33;;;5.50;82.70;;;7.44;55.61;96307.84;5012632;28;20050;-50
2024/03/09 04:34:57;;;;;;;21.07;13.07;;;5.50;81.40;;;7.43;55.89;96323.88;5021362;28;20054;-48
2024/03/09 04:37:27;;;;;;;20.30;12.57;;;5.50;81.50;;;7.41;55.59;96305.53;5029565;28;20044;-46
2024/03/09 04:39:55;;;;;;;16.80;10.80;;;5.60;80.20;;;7.42;55.86;96307.16;5021380;28;20048;-49
2024/03/09 04:42:24;;;;;;;17.93;10.60;;;5.60;79.80;;;7.42;55.50;96306.34;5008690;28;20065;-47
2024/03/09 04:44:52;;;;;;;18.73;11.00;;;5.50;80.10;;;7.41;55.61;96294.13;5017068;28;20145;-47
2024/03/09 04:47:20;;;;;;;19.37;12.17;;;5.50;80.00;;;7.39;55.46;96286.34;5029421;28;20048;-50
2024/03/09 04:49:48;;;;;;;22.27;12.20;;;5.50;80.00;;;7.37;55.63;96277.75;5025889;28;20438;-50
2024/03/09 04:52:16;;;;;;;20.50;11.63;;;5.50;79.70;;;7.36;55.84;96270.78;5010955;28;20477;-49
2024/03/09 04:54:44;;;;;;;19.37;11.47;;;5.50;80.20;;;7.37;55.43;96258.41;5012113;28;20043;-49
2024/03/09 04:57:17;;;;;;;23.73;12.20;;;5.50;80.20;;;7.33;55.40;96263.22;5004426;28;20042;-48
2024/03/09 04:59:44;;;;;;;17.60;10.93;;;5.50;79.40;;;7.34;55.51;96264.84;5011436;28;20047;-47
2024/03/09 05:02:12;;;;;;;18.50;11.10;;;5.50;80.60;;;7.33;55.86;96276.44;5010402;28;20046;-47
2024/03/09 05:04:40;;;;;;;16.57;10.60;;;5.50;80.20;;;7.30;55.77;96287.38;5010780;28;20069;-46
2024/03/09 05:07:09;;;;;;;18.97;10.73;;;5.40;80.40;;;7.32;55.94;96301.25;5026470;28;20051;-49
2024/03/09 05:09:40;;;;;;;16.80;9.93;;;5.40;80.70;;;7.35;55.85;96311.50;5029108;28;20040;-47
2024/03/09 05:12:07;;;;;;;19.63;10.83;;;5.50;80.40;;;7.38;55.98;96310.34;5014398;28;20498;-46
2024/03/09 05:14:35;;;;;;;16.73;10.67;;;5.50;80.40;;;7.35;55.67;96295.63;5011590;28;20039;-50
2024/03/09 05:17:03;;;;;;;19.47;11.37;;;5.50;80.20;;;7.34;55.85;96293.16;5022297;28;20039;-45
2024/03/09 05:19:31;;;;;;;19.67;10.87;;;5.50;80.80;;;7.35;55.78;96294.78;5028820;28;20036;-46
2024/03/09 05:21:59;;;;;;;18.13;10.80;;;5.40;80.90;;;7.36;55.93;96291.16;5021204;28;20052;-49
2024/03/09 05:24:28;;;;;;;18.17;11.80;;;5.40;81.50;;;7.35;55.91;96287.69;5011540;28;20054;-48
2024/03/09 05:26:56;;;;;;;17.23;10.47;;;5.40;81.70;;;7.36;55.99;96269.97;5016831;28;20077;-48
2024/03/09 05:29:26;;;;;;;21.63;13.10;;;5.40;81.40;;;7.37;56.04;96279.56;5028663;28;20412;-50
2024/03/09 05:31:53;;;;;;;17.63;10.57;;;5.40;81.70;;;7.36;56.03;96277.91;5025493;28;20051;-46
2024/03/09 05:34:21;;;;;;;18.67;10.90;;;5.40;82.20;;;7.36;56.25;96267.31;5011515;28;20421;-49
2024/03/09 05:36:49;;;;;;;18.70;11.97;;;5.30;82.50;;;7.33;56.21;96260.56;5011364;28;20039;-48
2024/03/09 05:39:17;;;;;;;18.53;11.13;;;5.30;82.90;;;7.30;56.38;96263.53;5002385;28;20047;-48
2024/03/09 05:41:45;;;;;;;18.47;11.50;;;5.30;83.40;;;7.29;56.23;96283.91;5011406;28;20054;-48
2024/03/09 05:44:13;;;;;;;18.37;10.53;;;5.30;83.30;;;7.29;56.42;96291.84;5027008;28;20060;-49
2024/03/09 05:46:40;;;;;;;20.60;11.00;;;5.30;82.70;;;7.27;55.96;96282.44;5028164;28;20044;-48
2024/03/09 05:49:08;;;;;;;17.57;11.10;;;5.30;82.20;;;7.26;56.03;96283.44;5016207;28;20051;-49
2024/03/09 05:51:36;;;;;;;18.43;11.23;;;5.30;81.90;;;7.22;56.21;96284.78;5010094;28;20046;-45
2024/03/09 05:54:04;;;;;;;19.93;11.17;;;5.40;80.50;;;7.12;56.47;96281.53;5021014;28;20054;-46
2024/03/09 05:56:32;;;;;;;20.40;11.30;;;5.50;80.00;;;7.03;56.67;96272.78;5029056;28;20048;-48
2024/03/09 05:59:00;;;;;;;20.53;11.80;;;5.40;79.20;;;7.03;56.58;96275.44;5022517;28;20040;-45
2024/03/09 06:01:27;;;;;;;18.00;11.90;;;5.40;80.10;;;7.04;56.52;96280.56;5010049;28;20047;-46
2024/03/09 06:03:57;;;;;;;21.30;11.83;;;5.40;80.10;;;7.06;56.85;96281.22;5014520;28;20406;-48
2024/03/09 06:06:25;;;;;;;20.43;12.43;;;5.40;80.20;;;7.05;56.60;96276.09;5027514;28;20499;-47
2024/03/09 06:08:52;;;;;;;20.80;11.73;;;5.50;80.00;;;7.08;56.73;96275.75;5027702;28;20044;-49
2024/03/09 06:11:21;;;;;;;20.33;12.37;;;5.50;80.10;;;7.14;56.85;96280.34;5011183;28;20050;-46
2024/03/09 06:13:48;;;;;;;19.40;11.77;;;5.50;80.90;;;7.18;56.48;96294.06;5011056;28;20043;-46
2024/03/09 06:16:18;;;;;;;20.43;11.80;;;5.50;80.20;;;7.21;56.79;96293.69;5027293;28;20028;-48
2024/03/09 06:18:48;;;;;;;18.43;10.20;;;5.50;80.00;;;7.24;56.69;96291.53;5027656;28;20048;-47
2024/03/09 06:21:17;;;;;;;20.07;11.10;;;5.60;79.90;;;7.25;56.68;96297.66;5012860;28;20098;-47
2024/03/09 06:23:44;;;;;;;21.50;10.83;;;5.60;79.60;;;7.30;56.62;96295.31;5011069;28;20061;-48
2024/03/09 06:26:12;;;;;;;20.67;11.20;;;5.60;78.90;;;7.29;56.06;96296.34;5023849;28;20043;-45
2024/03/09 06:28:40;;;;;;;18.97;11.70;;;5.60;78.20;;;7.28;55.91;96294.66;5026827;28;20056;-45
2024/03/09 06:31:08;;;;;;;21.43;11.77;;;5.50;78.50;;;7.23;56.20;96299.66;5018656;28;20499;-49
2024/03/09 06:33:36;;;;;;;19.73;11.17;;;5.50;78.30;;;7.23;55.91;96302.28;5010913;28;20046;-45
2024/03/09 06:36:05;;;;;;;19.97;11.70;;;5.40;78.00;;;7.25;56.03;96305.59;5017077;28;20521;-45
2024/03/09 06:38:35;;;;;;;18.47;11.03;;;5.50;77.70;;;7.27;55.92;96304.44;5027922;28;20041;-45
2024/03/09 06:41:02;;;;;;;19.60;11.87;;;5.50;77.50;;;7.31;55.61;96304.91;5021592;28;20044;-45
2024/03/09 06:43:31;;;;;;;17.47;11.33;;;5.50;78.10;;;7.36;55.47;96307.84;5010871;28;20051;-45
2024/03/09 06:46:00;;;;;;;17.80;11.23;;;5.50;77.20;;;7.39;55.48;96315.47;5012333;28;20047;-45
2024/03/09 06:48:29;;;;;;;18.63;11.43;;;5.50;77.20;;;7.40;55.46;96324.22;5025796;28;20057;-46
2024/03/09 06:50:58;;;;;;;18.20;11.50;;;5.60;77.20;;;7.42;55.27;96323.03;5014198;28;20055;-45
2024/03/09 06:53:29;;;;;;;17.37;12.70;;;5.60;77.20;;;7.44;55.23;96333.47;5031342;28;20040;-46
2024/03/09 06:55:57;;;;;;;18.60;11.50;;;5.60;77.30;;;7.47;55.33;96325.19;5031897;28;20045;-46
2024/03/09 06:58:25;;;;;;;18.20;11.67;;;5.60;77.30;;;7.46;55.19;96327.03;5006484;28;20406;-45
2024/03/09 07:00:52;;;;;;;19.40;11.50;;;5.70;76.80;;;7.46;55.20;96328.81;5013543;28;20491;-46
2024/03/09 07:03:20;;;;;;;21.60;13.33;;;5.80;76.40;;;7.49;55.33;96329.31;5029405;28;20084;-45
2024/03/09 07:05:48;;;;;;;18.07;11.50;;;5.80;76.60;;;7.55;55.24;96330.44;5031248;28;20096;-47
2024/03/09 07:08:15;;;;;;;20.67;11.67;;;5.80;76.40;;;7.56;55.24;96329.44;5017733;28;20048;-46
2024/03/09 07:10:44;;;;;;;20.63;12.27;;;5.90;76.20;;;7.61;55.17;96327.09;5013619;28;20058;-48
2024/03/09 07:13:12;;;;;;;17.80;11.30;;;5.90;76.20;;;7.66;55.28;96322.09;5021237;28;20054;-45
2024/03/09 07:15:41;;;;;;;20.63;12.37;;;5.90;76.40;;;7.68;55.16;96325.38;5030797;28;20040;-45
2024/03/09 07:18:10;;;;;;;19.63;13.03;;;6.00;76.40;;;7.68;55.12;96327.22;5024193;28;20044;-46
2024/03/09 07:20:39;;;;;;;18.60;12.07;;;6.00;76.00;;;7.66;55.22;96332.69;5013257;28;20043;-48
2024/03/09 07:23:08;;;;;;;19.23;11.30;;;6.00;76.20;;;7.70;55.16;96330.53;5018439;28;20053;-46
2024/03/09 07:25:36;;;;;;;22.03;13.27;;;6.10;76.30;;;7.73;55.57;96332.81;5030889;28;20044;-47
2024/03/09 07:28:05;;;;;;;20.60;12.13;;;6.10;76.20;;;7.77;55.44;96331.44;5028368;28;20436;-46
2024/03/09 07:30:32;;;;;;;21.10;12.50;;;6.10;76.10;;;7.81;55.19;96329.28;5012902;28;20047;-49
2024/03/09 07:33:01;;;;;;;26.00;12.73;;;6.20;76.20;;;7.85;55.34;96335.88;5012284;28;20046;-44
2024/03/09 07:35:29;;;;;;;20.13;12.13;;;6.10;76.10;;;7.86;55.16;96340.19;5030784;28;20388;-45
2024/03/09 07:37:58;;;;;;;21.60;12.47;;;6.20;75.80;;;7.89;55.23;96331.88;5030586;28;20075;-44
2024/03/09 07:40:29;;;;;;;20.70;11.73;;;6.20;75.90;;;7.92;55.13;96325.41;5005149;28;20038;-45
2024/03/09 07:42:58;;;;;;;23.07;13.17;;;6.20;76.20;;;7.95;55.22;96322.38;5009166;28;20054;-45
2024/03/09 07:45:26;;;;;;;23.00;13.23;;;6.20;76.10;;;7.98;55.17;96333.47;5025910;28;20051;-47
2024/03/09 07:47:54;;;;;;;20.13;12.30;;;6.30;75.80;;;8.01;55.04;96338.41;4987162;28;20073;-45
2024/03/09 07:50:23;;;;;;;21.30;13.17;;;6.30;75.60;;;8.05;54.99;96341.53;4979199;28;20511;-45
2024/03/09 07:52:53;;;;;;;22.57;12.60;;;6.30;76.00;;;8.06;54.89;96337.88;5003829;28;20045;-47
2024/03/09 07:55:23;;;;;;;23.77;13.37;;;6.30;76.20;;;8.07;54.96;96328.94;5017279;28;20036;-46
2024/03/09 07:58:00;;;;;;;21.80;12.93;;;6.40;76.10;;;8.09;55.03;96334.88;5012547;28;20418;-44
2024/03/09 08:00:45;;;;;;;24.37;13.97;;;6.40;76.60;;;8.11;55.27;96340.81;5005726;28;20087;-45
2024/03/09 08:03:13;;;;;;;21.93;13.73;;;6.40;77.50;;;8.14;55.45;96342.28;5018926;28;20046;-44
2024/03/09 08:05:42;;;;;;;25.60;14.07;;;6.40;77.80;;;8.13;55.43;96343.31;5030157;28;20045;-47
2024/03/09 08:08:11;;;;;;;18.47;12.53;;;6.50;78.30;;;8.16;55.72;96350.88;5025694;28;20048;-47
2024/03/09 08:10:46;;;;;;;21.23;12.47;;;6.50;78.30;;;8.17;55.70;96358.66;5012563;28;20485;-48
2024/03/09 08:13:19;;;;;;;20.70;13.33;;;6.50;78.20;;;8.19;55.76;96350.53;5020871;28;20054;-45
2024/03/09 08:15:47;;;;;;;19.80;12.23;;;6.50;78.30;;;8.21;55.88;96345.88;5029989;28;20044;-48
2024/03/09 08:18:14;;;;;;;20.67;12.83;;;6.50;78.40;;;8.22;55.77;96342.22;5023238;28;20052;-46
2024/03/09 08:20:43;;;;;;;21.63;12.73;;;6.50;78.00;;;8.23;55.68;96331.44;5012256;28;20051;-45
2024/03/09 08:23:11;;;;;;;23.70;13.23;;;6.60;78.00;;;8.25;55.77;96333.91;5014629;28;20062;-46
2024/03/09 08:25:39;;;;;;;24.73;12.57;;;6.50;78.20;;;8.26;55.81;96333.75;5029890;28;20048;-46
2024/03/09 08:28:08;;;;;;;20.87;13.83;;;6.60;77.60;;;8.28;55.69;96330.94;5028608;28;20419;-49
2024/03/09 08:30:36;;;;;;;21.53;13.83;;;6.60;77.60;;;8.29;55.46;96335.22;5010600;28;20058;-44
2024/03/09 08:33:04;;;;;;;21.70;12.55;;;6.60;77.40;;;8.33;55.74;96341.81;5011351;28;20058;-47
2024/03/09 08:35:33;;;;;;;21.60;13.53;;;6.60;77.20;;;8.35;55.55;96342.44;5004678;28;20395;-46
2024/03/09 08:38:01;;;;;;;18.07;11.87;;;6.60;77.10;;;8.37;55.53;96342.28;5012840;28;20043;-47
2024/03/09 08:40:32;;;;;;;22.77;12.37;;;6.70;77.10;;;8.38;55.46;96342.09;5027428;28;20496;-46
2024/03/09 08:43:00;;;;;;;23.83;13.80;;;6.70;76.90;;;8.40;55.50;96341.94;5028241;28;20048;-47
2024/03/09 08:45:28;;;;;;;21.70;12.97;;;6.80;76.80;;;8.42;55.60;96329.34;5014293;28;20070;-46
2024/03/09 08:47:57;;;;;;;20.17;12.90;;;6.80;76.80;;;8.45;55.79;96335.13;5012020;28;20510;-45
2024/03/09 08:50:25;;;;;;;21.33;12.63;;;6.80;77.00;;;8.50;55.51;96333.75;5023991;28;20046;-46
2024/03/09 08:52:55;;;;;;;19.67;12.00;;;6.80;76.90;;;8.53;55.46;96341.31;5027969;28;20055;-46
2024/03/09 08:55:23;;;;;;;21.23;12.70;;;6.90;76.80;;;8.55;55.71;96337.50;5018563;28;20055;-46
2024/03/09 08:57:51;;;;;;;20.70;11.97;;;7.00;76.70;;;8.59;55.48;96337.97;5012116;28;20046;-46
2024/03/09 09:00:20;;;;;;;20.73;12.83;;;7.00;76.50;;;8.62;55.64;96334.94;5018100;28;20406;-46
2024/03/09 09:02:49;;;;;;;22.50;13.53;;;7.10;76.50;;;8.65;55.60;96335.41;5029397;28;20049;-50
2024/03/09 09:05:21;;;;;;;25.13;13.00;;;7.10;76.40;;;8.70;55.63;96340.16;5024442;28;20495;-46
2024/03/09 09:07:49;;;;;;;21.77;12.90;;;7.10;76.50;;;8.74;55.84;96337.97;5011894;28;20518;-46
2024/03/09 09:10:21;;;;;;;16.77;10.63;;;7.20;76.60;;;8.78;55.66;96331.28;5015089;28;20043;-45
2024/03/09 09:12:49;;;;;;;20.47;11.23;;;7.20;76.50;;;8.82;55.64;96320.16;5028755;28;20049;-47
2024/03/09 09:15:17;;;;;;;21.43;13.50;;;7.30;76.20;;;8.86;55.50;96308.16;4974238;28;20057;-45
2024/03/09 09:17:45;;;;;;;21.23;12.30;;;7.30;76.40;;;8.91;55.42;96307.59;4967656;28;20378;-44
2024/03/09 09:20:13;;;;;;;22.53;13.83;;;7.40;76.30;;;8.96;55.49;96310.53;4948768;28;20483;-46
2024/03/09 09:22:47;;;;;;;19.10;11.63;;;7.40;75.90;;;9.00;55.66;96306.50;4969400;28;20054;-46
2024/03/09 09:25:16;;;;;;;20.15;12.57;;;7.50;76.10;;;9.03;55.64;96298.19;4969752;28;20044;-46
2024/03/09 09:27:45;;;;;;;20.00;12.80;;;7.50;76.00;;;9.07;55.85;96294.16;4961967;28;20043;-47
2024/03/09 09:30:12;;;;;;;18.90;11.03;;;7.60;75.90;;;9.13;55.50;96291.75;4963716;28;20048;-47
2024/03/09 09:32:41;;;;;;;20.50;12.80;;;7.60;75.80;;;9.16;55.79;96292.22;4969815;28;20073;-44
2024/03/09 09:35:11;;;;;;;19.20;11.57;;;7.70;75.50;;;9.22;55.61;96288.81;4970191;28;20050;-45
2024/03/09 09:37:40;;;;;;;23.50;11.90;;;7.80;75.50;;;9.29;55.61;96286.25;4966808;28;20054;-46
2024/03/09 09:40:08;;;;;;;21.47;12.00;;;7.80;75.40;;;9.34;55.68;96286.50;4964268;28;20039;-45
2024/03/09 09:42:37;;;;;;;18.47;12.13;;;7.80;75.40;;;9.37;55.51;96278.16;4976992;28;20032;-44
2024/03/09 09:45:05;;;;;;;24.27;13.10;;;7.90;75.20;;;9.42;55.04;96274.94;5026217;28;20049;-45
2024/03/09 09:47:34;;;;;;;21.87;12.43;;;7.90;74.80;;;9.46;55.30;96263.75;5015549;28;20045;-45
2024/03/09 09:50:03;;;;;;;21.10;12.03;;;8.00;74.60;;;9.52;55.57;96264.84;5009268;28;20485;-46
2024/03/09 09:52:34;;;;;;;20.37;11.63;;;8.10;75.30;;;9.57;55.41;96258.97;5020996;28;20042;-44
2024/03/09 09:55:03;;;;;;;18.40;11.47;;;8.10;74.90;;;9.62;55.48;96269.84;5027827;28;20044;-45
2024/03/09 09:57:31;;;;;;;17.00;11.37;;;8.20;74.30;;;9.65;55.34;96262.34;5001363;28;20040;-45
2024/03/09 09:59:59;;;;;;;18.33;10.83;;;8.30;74.10;;;9.73;55.15;96258.72;5010310;28;20051;-48
2024/03/09 10:02:27;;;;;;;18.83;11.43;;;8.30;74.00;;;9.78;55.07;96258.16;5018381;28;20050;-44
2024/03/09 10:04:55;;;;;;;18.53;11.37;;;8.40;73.70;;;9.85;54.89;96253.72;5028538;28;20045;-44
2024/03/09 10:07:24;;;;;;;20.93;12.50;;;8.50;73.60;;;9.91;55.00;96255.63;5023857;28;20491;-45
2024/03/09 10:09:52;;;;;;;19.40;11.97;;;8.50;73.40;;;9.97;55.29;96252.19;5010556;28;20049;-45
2024/03/09 10:12:23;;;;;;;18.00;11.37;;;8.60;73.30;;;10.04;54.96;96253.06;5011310;28;20054;-43
2024/03/09 10:14:53;;;;;;;22.70;12.10;;;8.60;73.40;;;10.08;54.74;96245.53;5018966;28;20044;-45
2024/03/09 10:17:22;;;;;;;16.90;11.83;;;8.70;73.70;;;10.13;55.24;96236.97;5025861;28;20412;-44
2024/03/09 10:19:50;;;;;;;19.73;11.83;;;8.70;73.30;;;10.18;54.72;96243.38;5009251;28;20050;-44
2024/03/09 10:22:18;;;;;;;15.87;10.67;;;8.80;73.00;;;10.24;55.11;96239.13;5009985;28;20051;-45
2024/03/09 10:24:58;;;;;;;17.00;10.37;;;8.90;73.00;;;10.31;54.64;96239.19;5014471;28;20046;-45
2024/03/09 10:27:28;;;;;;;17.93;11.77;;;8.90;72.20;;;10.35;54.44;96235.13;5018408;28;20047;-48
2024/03/09 10:30:10;;;;;;;14.07;10.17;;;9.00;71.30;;;10.41;54.75;96234.34;5014810;28;20050;-46